sensor_id;sensor_type;location;lat;lon;timestamp;P1;durP1;ratioP1;P2;durP2;ratioP2
72105;SDS011;59975;47.646;18.318;2023-02-28T00:00:30;10.25;;;4.00;;
72105;SDS011;59975;47.646;18.318;2023-02-28T00:02:56;8.27;;;4.25;;
72105;SDS011;59975;47.646;18.318;2023-02-28T00:05:22;14.93;;;4.03;;
72105;SDS011;59975;47.646;18.318;2023-02-28T00:07:49;9.73;;;4.50;;
72105;SDS011;59975;47.646;18.318;2023-02-28T00:10:17;6.05;;;3.25;;
72105;SDS011;59975;47.646;18.318;2023-02-28T00:12:48;7.60;;;4.15;;
72105;SDS011;59975;47.646;18.318;2023-02-28T00:15:15;8.77;;;4.53;;
72105;SDS011;59975;47.646;18.318;2023-02-28T00:17:42;6.82;;;3.67;;
72105;SDS011;59975;47.646;18.318;2023-02-28T00:20:07;10.65;;;3.70;;
72105;SDS011;59975;47.646;18.318;2023-02-28T00:22:41;7.70;;;4.83;;
72105;SDS011;59975;47.646;18.318;2023-02-28T00:25:09;10.05;;;4.45;;
72105;SDS011;59975;47.646;18.318;2023-02-28T00:27:37;7.57;;;4.10;;
72105;SDS011;59975;47.646;18.318;2023-02-28T00:30:03;9.07;;;4.30;;
72105;SDS011;59975;47.646;18.318;2023-02-28T00:32:30;14.77;;;4.90;;
72105;SDS011;59975;47.646;18.318;2023-02-28T00:34:56;11.80;;;4.97;;
72105;SDS011;59975;47.646;18.318;2023-02-28T00:37:22;12.75;;;5.88;;
72105;SDS011;59975;47.646;18.318;2023-02-28T00:39:48;12.53;;;5.33;;
72105;SDS011;59975;47.646;18.318;2023-02-28T00:42:13;12.40;;;5.10;;
72105;SDS011;59975;47.646;18.318;2023-02-28T00:44:39;11.87;;;4.50;;
72105;SDS011;59975;47.646;18.318;2023-02-28T00:47:04;11.48;;;5.10;;
72105;SDS011;59975;47.646;18.318;2023-02-28T00:49:30;10.75;;;5.25;;
72105;SDS011;59975;47.646;18.318;2023-02-28T00:51:56;8.87;;;4.40;;
72105;SDS011;59975;47.646;18.318;2023-02-28T00:54:22;12.82;;;6.32;;
72105;SDS011;59975;47.646;18.318;2023-02-28T00:56:48;8.82;;;4.90;;
72105;SDS011;59975;47.646;18.318;2023-02-28T00:59:14;10.67;;;5.27;;
72105;SDS011;59975;47.646;18.318;2023-02-28T01:01:41;11.10;;;5.32;;
72105;SDS011;59975;47.646;18.318;2023-02-28T01:04:07;12.43;;;5.20;;
72105;SDS011;59975;47.646;18.318;2023-02-28T01:06:33;10.87;;;5.07;;
72105;SDS011;59975;47.646;18.318;2023-02-28T01:08:58;13.32;;;5.35;;
72105;SDS011;59975;47.646;18.318;2023-02-28T01:11:25;11.52;;;5.25;;
72105;SDS011;59975;47.646;18.318;2023-02-28T01:13:51;9.77;;;4.80;;
72105;SDS011;59975;47.646;18.318;2023-02-28T01:16:16;9.52;;;4.68;;
72105;SDS011;59975;47.646;18.318;2023-02-28T01:18:42;16.33;;;5.50;;
72105;SDS011;59975;47.646;18.318;2023-02-28T01:21:09;10.98;;;5.20;;
72105;SDS011;59975;47.646;18.318;2023-02-28T01:23:37;9.93;;;4.57;;
72105;SDS011;59975;47.646;18.318;2023-02-28T01:26:04;13.15;;;5.22;;
72105;SDS011;59975;47.646;18.318;2023-02-28T01:28:35;14.63;;;5.63;;
72105;SDS011;59975;47.646;18.318;2023-02-28T01:31:00;13.67;;;5.30;;
72105;SDS011;59975;47.646;18.318;2023-02-28T01:33:26;10.45;;;4.50;;
72105;SDS011;59975;47.646;18.318;2023-02-28T01:36:02;12.73;;;5.37;;
72105;SDS011;59975;47.646;18.318;2023-02-28T01:38:29;13.48;;;6.13;;
72105;SDS011;59975;47.646;18.318;2023-02-28T01:40:55;20.50;;;5.68;;
72105;SDS011;59975;47.646;18.318;2023-02-28T01:43:25;11.47;;;5.50;;
72105;SDS011;59975;47.646;18.318;2023-02-28T01:45:53;14.40;;;5.57;;
72105;SDS011;59975;47.646;18.318;2023-02-28T01:48:21;11.50;;;5.13;;
72105;SDS011;59975;47.646;18.318;2023-02-28T01:50:52;13.80;;;5.38;;
72105;SDS011;59975;47.646;18.318;2023-02-28T01:53:21;18.70;;;6.90;;
72105;SDS011;59975;47.646;18.318;2023-02-28T01:55:52;12.02;;;6.00;;
72105;SDS011;59975;47.646;18.318;2023-02-28T01:58:19;14.90;;;6.15;;
72105;SDS011;59975;47.646;18.318;2023-02-28T02:00:45;10.30;;;5.55;;
72105;SDS011;59975;47.646;18.318;2023-02-28T02:03:12;13.88;;;6.10;;
72105;SDS011;59975;47.646;18.318;2023-02-28T02:05:40;17.70;;;7.03;;
72105;SDS011;59975;47.646;18.318;2023-02-28T02:08:11;17.65;;;6.57;;
72105;SDS011;59975;47.646;18.318;2023-02-28T02:10:43;20.02;;;6.68;;
72105;SDS011;59975;47.646;18.318;2023-02-28T02:15:56;15.00;;;6.57;;
72105;SDS011;59975;47.646;18.318;2023-02-28T02:37:43;7.65;;;4.20;;
72105;SDS011;59975;47.646;18.318;2023-02-28T02:40:46;7.38;;;3.55;;
72105;SDS011;59975;47.646;18.318;2023-02-28T02:44:10;11.95;;;4.43;;
72105;SDS011;59975;47.646;18.318;2023-02-28T02:46:27;9.43;;;4.93;;
72105;SDS011;59975;47.646;18.318;2023-02-28T02:48:57;14.30;;;4.28;;
72105;SDS011;59975;47.646;18.318;2023-02-28T02:51:25;8.77;;;3.90;;
72105;SDS011;59975;47.646;18.318;2023-02-28T02:54:08;11.30;;;4.10;;
72105;SDS011;59975;47.646;18.318;2023-02-28T02:56:41;7.85;;;4.25;;
72105;SDS011;59975;47.646;18.318;2023-02-28T02:59:09;7.17;;;4.17;;
72105;SDS011;59975;47.646;18.318;2023-02-28T03:01:38;14.02;;;4.43;;
72105;SDS011;59975;47.646;18.318;2023-02-28T03:04:09;8.82;;;4.55;;
72105;SDS011;59975;47.646;18.318;2023-02-28T03:06:38;6.32;;;3.53;;
72105;SDS011;59975;47.646;18.318;2023-02-28T03:09:03;7.50;;;4.10;;
72105;SDS011;59975;47.646;18.318;2023-02-28T03:11:30;9.57;;;4.00;;
72105;SDS011;59975;47.646;18.318;2023-02-28T03:13:59;11.38;;;4.78;;
72105;SDS011;59975;47.646;18.318;2023-02-28T03:22:41;10.35;;;4.63;;
72105;SDS011;59975;47.646;18.318;2023-02-28T03:27:53;10.48;;;4.75;;
72105;SDS011;59975;47.646;18.318;2023-02-28T03:33:11;8.60;;;3.90;;
72105;SDS011;59975;47.646;18.318;2023-02-28T03:36:24;11.40;;;4.32;;
72105;SDS011;59975;47.646;18.318;2023-02-28T03:38:36;9.43;;;4.85;;
72105;SDS011;59975;47.646;18.318;2023-02-28T03:44:09;17.10;;;5.95;;
72105;SDS011;59975;47.646;18.318;2023-02-28T03:46:42;13.97;;;6.47;;
72105;SDS011;59975;47.646;18.318;2023-02-28T03:49:17;12.88;;;5.68;;
72105;SDS011;59975;47.646;18.318;2023-02-28T03:51:47;15.90;;;6.43;;
72105;SDS011;59975;47.646;18.318;2023-02-28T03:54:21;13.88;;;6.20;;
72105;SDS011;59975;47.646;18.318;2023-02-28T03:56:52;19.15;;;6.63;;
72105;SDS011;59975;47.646;18.318;2023-02-28T03:59:27;13.60;;;6.20;;
72105;SDS011;59975;47.646;18.318;2023-02-28T04:01:55;14.18;;;6.18;;
72105;SDS011;59975;47.646;18.318;2023-02-28T04:04:23;10.65;;;6.05;;
72105;SDS011;59975;47.646;18.318;2023-02-28T04:06:52;10.75;;;5.65;;
72105;SDS011;59975;47.646;18.318;2023-02-28T04:09:27;13.25;;;6.40;;
72105;SDS011;59975;47.646;18.318;2023-02-28T04:11:53;13.53;;;6.17;;
72105;SDS011;59975;47.646;18.318;2023-02-28T04:14:20;12.70;;;6.00;;
72105;SDS011;59975;47.646;18.318;2023-02-28T04:16:46;12.85;;;5.93;;
72105;SDS011;59975;47.646;18.318;2023-02-28T04:19:12;12.93;;;6.63;;
72105;SDS011;59975;47.646;18.318;2023-02-28T04:21:39;15.90;;;6.03;;
72105;SDS011;59975;47.646;18.318;2023-02-28T04:24:07;14.00;;;6.35;;
72105;SDS011;59975;47.646;18.318;2023-02-28T04:26:39;10.20;;;5.20;;
72105;SDS011;59975;47.646;18.318;2023-02-28T04:29:06;11.32;;;6.20;;
72105;SDS011;59975;47.646;18.318;2023-02-28T04:31:32;14.45;;;6.25;;
72105;SDS011;59975;47.646;18.318;2023-02-28T04:33:58;14.23;;;6.03;;
72105;SDS011;59975;47.646;18.318;2023-02-28T04:36:24;13.98;;;5.82;;
72105;SDS011;59975;47.646;18.318;2023-02-28T04:38:50;13.00;;;7.07;;
72105;SDS011;59975;47.646;18.318;2023-02-28T04:41:16;11.98;;;5.95;;
72105;SDS011;59975;47.646;18.318;2023-02-28T04:43:42;15.73;;;6.73;;
72105;SDS011;59975;47.646;18.318;2023-02-28T04:46:08;12.20;;;6.32;;
72105;SDS011;59975;47.646;18.318;2023-02-28T04:48:35;13.30;;;6.10;;
72105;SDS011;59975;47.646;18.318;2023-02-28T04:51:03;14.73;;;6.38;;
72105;SDS011;59975;47.646;18.318;2023-02-28T04:53:30;13.77;;;6.40;;
72105;SDS011;59975;47.646;18.318;2023-02-28T04:55:56;14.68;;;6.22;;
72105;SDS011;59975;47.646;18.318;2023-02-28T04:58:23;12.70;;;5.97;;
72105;SDS011;59975;47.646;18.318;2023-02-28T05:00:49;14.45;;;6.38;;
72105;SDS011;59975;47.646;18.318;2023-02-28T05:03:15;11.23;;;5.65;;
72105;SDS011;59975;47.646;18.318;2023-02-28T05:05:41;11.37;;;5.60;;
72105;SDS011;59975;47.646;18.318;2023-02-28T05:08:06;12.80;;;6.93;;
72105;SDS011;59975;47.646;18.318;2023-02-28T05:10:32;13.87;;;6.40;;
72105;SDS011;59975;47.646;18.318;2023-02-28T05:12:57;14.57;;;6.82;;
72105;SDS011;59975;47.646;18.318;2023-02-28T05:15:23;14.10;;;6.10;;
72105;SDS011;59975;47.646;18.318;2023-02-28T05:17:49;20.92;;;7.30;;
72105;SDS011;59975;47.646;18.318;2023-02-28T05:20:15;16.10;;;6.60;;
72105;SDS011;59975;47.646;18.318;2023-02-28T05:22:41;14.37;;;6.80;;
72105;SDS011;59975;47.646;18.318;2023-02-28T07:10:53;13.82;;;7.85;;
72105;SDS011;59975;47.646;18.318;2023-02-28T08:00:07;17.98;;;6.70;;
72105;SDS011;59975;47.646;18.318;2023-02-28T08:02:44;13.07;;;5.80;;
72105;SDS011;59975;47.646;18.318;2023-02-28T08:05:10;12.33;;;6.50;;
72105;SDS011;59975;47.646;18.318;2023-02-28T08:07:35;12.68;;;6.13;;
72105;SDS011;59975;47.646;18.318;2023-02-28T08:10:01;11.83;;;5.93;;
72105;SDS011;59975;47.646;18.318;2023-02-28T08:12:28;21.92;;;6.72;;
72105;SDS011;59975;47.646;18.318;2023-02-28T08:14:54;10.90;;;5.88;;
72105;SDS011;59975;47.646;18.318;2023-02-28T08:17:24;9.20;;;5.77;;
72105;SDS011;59975;47.646;18.318;2023-02-28T08:20:08;16.00;;;6.32;;
72105;SDS011;59975;47.646;18.318;2023-02-28T08:22:38;14.18;;;6.70;;
72105;SDS011;59975;47.646;18.318;2023-02-28T08:25:24;14.48;;;6.93;;
72105;SDS011;59975;47.646;18.318;2023-02-28T08:31:06;12.68;;;6.57;;
72105;SDS011;59975;47.646;18.318;2023-02-28T08:33:50;11.20;;;6.05;;
72105;SDS011;59975;47.646;18.318;2023-02-28T08:36:26;10.23;;;5.57;;
72105;SDS011;59975;47.646;18.318;2023-02-28T08:38:57;12.80;;;5.97;;
72105;SDS011;59975;47.646;18.318;2023-02-28T08:41:29;11.77;;;6.03;;
72105;SDS011;59975;47.646;18.318;2023-02-28T08:44:09;10.55;;;4.72;;
72105;SDS011;59975;47.646;18.318;2023-02-28T08:46:38;9.45;;;4.97;;
72105;SDS011;59975;47.646;18.318;2023-02-28T08:49:24;7.97;;;4.68;;
72105;SDS011;59975;47.646;18.318;2023-02-28T08:52:20;7.57;;;4.07;;
72105;SDS011;59975;47.646;18.318;2023-02-28T08:55:15;6.70;;;4.37;;
72105;SDS011;59975;47.646;18.318;2023-02-28T08:57:49;12.38;;;4.75;;
72105;SDS011;59975;47.646;18.318;2023-02-28T09:00:18;9.15;;;4.65;;
72105;SDS011;59975;47.646;18.318;2023-02-28T09:02:44;11.63;;;4.53;;
72105;SDS011;59975;47.646;18.318;2023-02-28T09:05:10;9.57;;;4.53;;
72105;SDS011;59975;47.646;18.318;2023-02-28T09:07:57;12.43;;;5.60;;
72105;SDS011;59975;47.646;18.318;2023-02-28T09:10:25;11.73;;;4.43;;
72105;SDS011;59975;47.646;18.318;2023-02-28T09:13:31;13.27;;;5.55;;
72105;SDS011;59975;47.646;18.318;2023-02-28T09:27:10;8.05;;;3.90;;
72105;SDS011;59975;47.646;18.318;2023-02-28T09:32:27;5.50;;;3.08;;
72105;SDS011;59975;47.646;18.318;2023-02-28T09:35:29;7.18;;;4.35;;
72105;SDS011;59975;47.646;18.318;2023-02-28T09:44:43;13.82;;;4.88;;
72105;SDS011;59975;47.646;18.318;2023-02-28T09:47:36;11.52;;;4.78;;
72105;SDS011;59975;47.646;18.318;2023-02-28T09:50:46;10.07;;;4.40;;
72105;SDS011;59975;47.646;18.318;2023-02-28T09:56:21;9.48;;;4.13;;
72105;SDS011;59975;47.646;18.318;2023-02-28T10:09:01;8.57;;;4.00;;
72105;SDS011;59975;47.646;18.318;2023-02-28T10:11:38;9.73;;;4.22;;
72105;SDS011;59975;47.646;18.318;2023-02-28T10:14:12;8.10;;;4.47;;
72105;SDS011;59975;47.646;18.318;2023-02-28T10:16:44;7.68;;;4.03;;
72105;SDS011;59975;47.646;18.318;2023-02-28T10:19:24;8.15;;;3.33;;
72105;SDS011;59975;47.646;18.318;2023-02-28T10:22:11;6.38;;;3.58;;
72105;SDS011;59975;47.646;18.318;2023-02-28T10:24:50;8.77;;;4.47;;
72105;SDS011;59975;47.646;18.318;2023-02-28T10:27:28;11.73;;;3.80;;
72105;SDS011;59975;47.646;18.318;2023-02-28T10:29:56;6.32;;;3.35;;
72105;SDS011;59975;47.646;18.318;2023-02-28T10:32:34;8.57;;;4.00;;
72105;SDS011;59975;47.646;18.318;2023-02-28T10:37:32;6.03;;;3.47;;
72105;SDS011;59975;47.646;18.318;2023-02-28T10:40:03;7.43;;;3.85;;
72105;SDS011;59975;47.646;18.318;2023-02-28T10:42:31;7.43;;;4.10;;
72105;SDS011;59975;47.646;18.318;2023-02-28T10:45:10;7.57;;;3.83;;
72105;SDS011;59975;47.646;18.318;2023-02-28T10:47:56;9.88;;;3.53;;
72105;SDS011;59975;47.646;18.318;2023-02-28T10:50:44;7.65;;;3.58;;
72105;SDS011;59975;47.646;18.318;2023-02-28T10:53:16;7.22;;;3.58;;
72105;SDS011;59975;47.646;18.318;2023-02-28T10:55:46;5.65;;;3.28;;
72105;SDS011;59975;47.646;18.318;2023-02-28T10:58:24;9.18;;;4.03;;
72105;SDS011;59975;47.646;18.318;2023-02-28T11:00:52;5.70;;;3.33;;
72105;SDS011;59975;47.646;18.318;2023-02-28T11:03:52;7.80;;;3.38;;
72105;SDS011;59975;47.646;18.318;2023-02-28T11:06:18;9.57;;;3.40;;
72105;SDS011;59975;47.646;18.318;2023-02-28T11:08:47;4.13;;;2.20;;
72105;SDS011;59975;47.646;18.318;2023-02-28T11:11:25;7.25;;;3.08;;
72105;SDS011;59975;47.646;18.318;2023-02-28T11:13:54;7.72;;;3.78;;
72105;SDS011;59975;47.646;18.318;2023-02-28T11:16:31;6.93;;;3.65;;
72105;SDS011;59975;47.646;18.318;2023-02-28T11:19:00;7.90;;;3.67;;
72105;SDS011;59975;47.646;18.318;2023-02-28T11:21:30;3.45;;;1.98;;
72105;SDS011;59975;47.646;18.318;2023-02-28T11:24:24;4.95;;;2.75;;
72105;SDS011;59975;47.646;18.318;2023-02-28T11:26:54;7.13;;;2.95;;
72105;SDS011;59975;47.646;18.318;2023-02-28T11:35:13;10.80;;;5.80;;
72105;SDS011;59975;47.646;18.318;2023-02-28T11:37:58;7.10;;;4.13;;
72105;SDS011;59975;47.646;18.318;2023-02-28T11:40:31;7.10;;;3.28;;
72105;SDS011;59975;47.646;18.318;2023-02-28T11:54:11;7.18;;;3.20;;
72105;SDS011;59975;47.646;18.318;2023-02-28T11:56:53;5.18;;;3.05;;
72105;SDS011;59975;47.646;18.318;2023-02-28T12:05:01;9.40;;;4.05;;
72105;SDS011;59975;47.646;18.318;2023-02-28T12:07:39;8.02;;;3.70;;
72105;SDS011;59975;47.646;18.318;2023-02-28T12:10:25;9.35;;;3.38;;
72105;SDS011;59975;47.646;18.318;2023-02-28T12:23:46;6.60;;;3.42;;
72105;SDS011;59975;47.646;18.318;2023-02-28T12:29:19;7.45;;;4.07;;
72105;SDS011;59975;47.646;18.318;2023-02-28T12:34:38;5.22;;;3.28;;
72105;SDS011;59975;47.646;18.318;2023-02-28T12:37:10;7.18;;;4.00;;
72105;SDS011;59975;47.646;18.318;2023-02-28T12:39:45;5.63;;;3.40;;
72105;SDS011;59975;47.646;18.318;2023-02-28T12:44:54;6.05;;;3.67;;
72105;SDS011;59975;47.646;18.318;2023-02-28T12:47:30;6.35;;;3.13;;
72105;SDS011;59975;47.646;18.318;2023-02-28T12:49:59;8.10;;;3.77;;
72105;SDS011;59975;47.646;18.318;2023-02-28T12:55:26;5.95;;;3.55;;
72105;SDS011;59975;47.646;18.318;2023-02-28T12:58:05;5.68;;;3.22;;
72105;SDS011;59975;47.646;18.318;2023-02-28T13:00:55;6.17;;;2.23;;
72105;SDS011;59975;47.646;18.318;2023-02-28T13:03:47;7.25;;;3.22;;
72105;SDS011;59975;47.646;18.318;2023-02-28T13:09:01;6.35;;;3.10;;
72105;SDS011;59975;47.646;18.318;2023-02-28T13:11:39;8.57;;;3.67;;
72105;SDS011;59975;47.646;18.318;2023-02-28T13:14:23;5.40;;;3.27;;
72105;SDS011;59975;47.646;18.318;2023-02-28T13:19:42;7.53;;;4.30;;
72105;SDS011;59975;47.646;18.318;2023-02-28T13:22:36;9.85;;;3.60;;
72105;SDS011;59975;47.646;18.318;2023-02-28T13:25:50;5.68;;;2.92;;
72105;SDS011;59975;47.646;18.318;2023-02-28T13:27:59;8.10;;;3.33;;
72105;SDS011;59975;47.646;18.318;2023-02-28T13:33:25;9.23;;;4.05;;
72105;SDS011;59975;47.646;18.318;2023-02-28T13:38:46;6.78;;;3.60;;
72105;SDS011;59975;47.646;18.318;2023-02-28T13:57:07;7.68;;;3.08;;
72105;SDS011;59975;47.646;18.318;2023-02-28T14:05:14;7.72;;;3.65;;
72105;SDS011;59975;47.646;18.318;2023-02-28T14:07:54;9.67;;;3.70;;
72105;SDS011;59975;47.646;18.318;2023-02-28T14:10:29;6.40;;;3.35;;
72105;SDS011;59975;47.646;18.318;2023-02-28T14:15:46;7.07;;;3.70;;
72105;SDS011;59975;47.646;18.318;2023-02-28T14:18:18;4.07;;;2.65;;
72105;SDS011;59975;47.646;18.318;2023-02-28T14:20:48;8.20;;;3.53;;
72105;SDS011;59975;47.646;18.318;2023-02-28T14:26:03;11.60;;;4.18;;
72105;SDS011;59975;47.646;18.318;2023-02-28T14:37:29;6.30;;;3.08;;
72105;SDS011;59975;47.646;18.318;2023-02-28T14:39:58;7.40;;;4.13;;
72105;SDS011;59975;47.646;18.318;2023-02-28T14:42:35;9.13;;;3.45;;
72105;SDS011;59975;47.646;18.318;2023-02-28T14:45:18;7.90;;;3.22;;
72105;SDS011;59975;47.646;18.318;2023-02-28T14:47:45;5.57;;;2.70;;
72105;SDS011;59975;47.646;18.318;2023-02-28T14:50:18;6.85;;;3.03;;
72105;SDS011;59975;47.646;18.318;2023-02-28T14:52:50;10.15;;;3.85;;
72105;SDS011;59975;47.646;18.318;2023-02-28T14:55:18;7.43;;;3.38;;
72105;SDS011;59975;47.646;18.318;2023-02-28T14:57:56;8.98;;;3.40;;
72105;SDS011;59975;47.646;18.318;2023-02-28T15:02:50;6.75;;;3.53;;
72105;SDS011;59975;47.646;18.318;2023-02-28T15:05:20;7.30;;;3.30;;
72105;SDS011;59975;47.646;18.318;2023-02-28T15:08:00;6.35;;;2.95;;
72105;SDS011;59975;47.646;18.318;2023-02-28T15:10:27;8.45;;;3.40;;
72105;SDS011;59975;47.646;18.318;2023-02-28T15:12:58;10.97;;;4.07;;
72105;SDS011;59975;47.646;18.318;2023-02-28T15:15:34;9.82;;;4.22;;
72105;SDS011;59975;47.646;18.318;2023-02-28T15:20:52;7.10;;;3.30;;
72105;SDS011;59975;47.646;18.318;2023-02-28T15:23:19;7.67;;;3.10;;
72105;SDS011;59975;47.646;18.318;2023-02-28T15:25:47;7.05;;;3.08;;
72105;SDS011;59975;47.646;18.318;2023-02-28T15:28:14;6.93;;;3.60;;
72105;SDS011;59975;47.646;18.318;2023-02-28T15:30:54;7.65;;;3.72;;
72105;SDS011;59975;47.646;18.318;2023-02-28T15:33:23;7.75;;;3.55;;
72105;SDS011;59975;47.646;18.318;2023-02-28T15:35:51;6.93;;;3.37;;
72105;SDS011;59975;47.646;18.318;2023-02-28T15:38:27;6.65;;;3.40;;
72105;SDS011;59975;47.646;18.318;2023-02-28T15:40:54;10.30;;;3.15;;
72105;SDS011;59975;47.646;18.318;2023-02-28T15:48:37;6.20;;;3.60;;
72105;SDS011;59975;47.646;18.318;2023-02-28T15:51:12;7.35;;;3.20;;
72105;SDS011;59975;47.646;18.318;2023-02-28T15:56:25;8.57;;;3.08;;
72105;SDS011;59975;47.646;18.318;2023-02-28T15:58:56;7.88;;;3.47;;
72105;SDS011;59975;47.646;18.318;2023-02-28T16:01:24;6.77;;;3.43;;
72105;SDS011;59975;47.646;18.318;2023-02-28T16:03:54;4.90;;;2.75;;
72105;SDS011;59975;47.646;18.318;2023-02-28T16:08:47;6.43;;;2.93;;
72105;SDS011;59975;47.646;18.318;2023-02-28T16:11:16;6.70;;;3.97;;
72105;SDS011;59975;47.646;18.318;2023-02-28T16:13:41;10.35;;;4.03;;
72105;SDS011;59975;47.646;18.318;2023-02-28T16:16:07;8.27;;;3.73;;
72105;SDS011;59975;47.646;18.318;2023-02-28T16:18:33;9.23;;;4.10;;
72105;SDS011;59975;47.646;18.318;2023-02-28T16:20:58;8.07;;;3.83;;
72105;SDS011;59975;47.646;18.318;2023-02-28T16:23:23;10.53;;;4.13;;
72105;SDS011;59975;47.646;18.318;2023-02-28T16:25:49;8.73;;;4.03;;
72105;SDS011;59975;47.646;18.318;2023-02-28T16:28:19;10.23;;;4.38;;
72105;SDS011;59975;47.646;18.318;2023-02-28T16:30:50;13.13;;;4.70;;
72105;SDS011;59975;47.646;18.318;2023-02-28T16:33:16;10.03;;;4.70;;
72105;SDS011;59975;47.646;18.318;2023-02-28T16:35:42;10.80;;;3.80;;
72105;SDS011;59975;47.646;18.318;2023-02-28T16:38:07;12.60;;;3.83;;
72105;SDS011;59975;47.646;18.318;2023-02-28T16:40:34;9.80;;;4.30;;
72105;SDS011;59975;47.646;18.318;2023-02-28T16:43:00;15.15;;;5.40;;
72105;SDS011;59975;47.646;18.318;2023-02-28T16:45:40;8.73;;;4.13;;
72105;SDS011;59975;47.646;18.318;2023-02-28T16:48:07;8.90;;;4.33;;
72105;SDS011;59975;47.646;18.318;2023-02-28T16:50:37;11.52;;;5.55;;
72105;SDS011;59975;47.646;18.318;2023-02-28T16:53:03;14.52;;;6.20;;
72105;SDS011;59975;47.646;18.318;2023-02-28T16:55:29;15.30;;;5.73;;
72105;SDS011;59975;47.646;18.318;2023-02-28T16:57:55;15.63;;;6.80;;
72105;SDS011;59975;47.646;18.318;2023-02-28T17:00:22;18.07;;;8.00;;
72105;SDS011;59975;47.646;18.318;2023-02-28T17:02:49;23.83;;;8.38;;
72105;SDS011;59975;47.646;18.318;2023-02-28T17:05:15;20.92;;;8.77;;
72105;SDS011;59975;47.646;18.318;2023-02-28T17:07:40;20.85;;;9.43;;
72105;SDS011;59975;47.646;18.318;2023-02-28T17:12:35;24.27;;;11.52;;
72105;SDS011;59975;47.646;18.318;2023-02-28T17:15:01;22.42;;;11.90;;
72105;SDS011;59975;47.646;18.318;2023-02-28T17:17:26;31.23;;;12.73;;
72105;SDS011;59975;47.646;18.318;2023-02-28T17:19:54;29.88;;;13.63;;
72105;SDS011;59975;47.646;18.318;2023-02-28T17:22:19;36.50;;;16.50;;
72105;SDS011;59975;47.646;18.318;2023-02-28T17:24:45;28.37;;;15.83;;
72105;SDS011;59975;47.646;18.318;2023-02-28T17:27:11;30.75;;;13.73;;
72105;SDS011;59975;47.646;18.318;2023-02-28T17:29:38;30.30;;;14.05;;
72105;SDS011;59975;47.646;18.318;2023-02-28T17:32:04;41.80;;;16.27;;
72105;SDS011;59975;47.646;18.318;2023-02-28T17:34:29;43.27;;;16.03;;
72105;SDS011;59975;47.646;18.318;2023-02-28T17:36:55;41.35;;;16.25;;
72105;SDS011;59975;47.646;18.318;2023-02-28T17:39:20;35.30;;;14.97;;
72105;SDS011;59975;47.646;18.318;2023-02-28T17:41:55;34.85;;;14.60;;
72105;SDS011;59975;47.646;18.318;2023-02-28T17:44:21;34.17;;;13.52;;
72105;SDS011;59975;47.646;18.318;2023-02-28T17:46:48;28.48;;;13.70;;
72105;SDS011;59975;47.646;18.318;2023-02-28T17:49:15;39.25;;;14.05;;
72105;SDS011;59975;47.646;18.318;2023-02-28T17:51:41;29.55;;;13.55;;
72105;SDS011;59975;47.646;18.318;2023-02-28T17:54:06;22.73;;;10.50;;
72105;SDS011;59975;47.646;18.318;2023-02-28T17:56:32;21.95;;;10.98;;
72105;SDS011;59975;47.646;18.318;2023-02-28T17:58:58;21.57;;;9.83;;
72105;SDS011;59975;47.646;18.318;2023-02-28T18:01:24;36.77;;;15.13;;
72105;SDS011;59975;47.646;18.318;2023-02-28T18:03:53;34.53;;;16.13;;
72105;SDS011;59975;47.646;18.318;2023-02-28T18:08:53;35.63;;;14.70;;
72105;SDS011;59975;47.646;18.318;2023-02-28T18:11:19;36.92;;;15.85;;
72105;SDS011;59975;47.646;18.318;2023-02-28T18:13:47;35.10;;;15.33;;
72105;SDS011;59975;47.646;18.318;2023-02-28T18:16:14;38.72;;;15.48;;
72105;SDS011;59975;47.646;18.318;2023-02-28T18:18:40;31.85;;;14.32;;
72105;SDS011;59975;47.646;18.318;2023-02-28T18:21:07;28.45;;;13.57;;
72105;SDS011;59975;47.646;18.318;2023-02-28T18:23:34;44.92;;;17.63;;
72105;SDS011;59975;47.646;18.318;2023-02-28T18:26:00;42.43;;;18.57;;
72105;SDS011;59975;47.646;18.318;2023-02-28T18:28:26;50.75;;;19.77;;
72105;SDS011;59975;47.646;18.318;2023-02-28T18:30:51;48.73;;;18.07;;
72105;SDS011;59975;47.646;18.318;2023-02-28T18:33:17;50.28;;;20.08;;
72105;SDS011;59975;47.646;18.318;2023-02-28T18:35:42;38.57;;;17.50;;
72105;SDS011;59975;47.646;18.318;2023-02-28T18:38:12;38.10;;;18.17;;
72105;SDS011;59975;47.646;18.318;2023-02-28T18:40:39;40.85;;;17.45;;
72105;SDS011;59975;47.646;18.318;2023-02-28T18:43:06;38.53;;;17.48;;
72105;SDS011;59975;47.646;18.318;2023-02-28T18:45:38;40.95;;;17.33;;
72105;SDS011;59975;47.646;18.318;2023-02-28T18:48:04;53.25;;;21.27;;
72105;SDS011;59975;47.646;18.318;2023-02-28T18:50:30;64.70;;;24.63;;
72105;SDS011;59975;47.646;18.318;2023-02-28T18:52:56;73.00;;;26.65;;
72105;SDS011;59975;47.646;18.318;2023-02-28T18:55:24;80.13;;;26.95;;
72105;SDS011;59975;47.646;18.318;2023-02-28T18:57:51;61.83;;;25.48;;
72105;SDS011;59975;47.646;18.318;2023-02-28T19:00:17;59.40;;;20.98;;
72105;SDS011;59975;47.646;18.318;2023-02-28T19:02:46;46.55;;;20.15;;
72105;SDS011;59975;47.646;18.318;2023-02-28T19:05:13;43.55;;;18.70;;
72105;SDS011;59975;47.646;18.318;2023-02-28T19:07:39;42.93;;;18.30;;
72105;SDS011;59975;47.646;18.318;2023-02-28T19:10:05;46.33;;;20.63;;
72105;SDS011;59975;47.646;18.318;2023-02-28T19:12:34;51.03;;;21.00;;
72105;SDS011;59975;47.646;18.318;2023-02-28T19:15:01;46.95;;;20.30;;
72105;SDS011;59975;47.646;18.318;2023-02-28T19:17:27;42.22;;;19.25;;
72105;SDS011;59975;47.646;18.318;2023-02-28T19:19:53;47.37;;;18.73;;
72105;SDS011;59975;47.646;18.318;2023-02-28T19:22:18;42.53;;;17.95;;
72105;SDS011;59975;47.646;18.318;2023-02-28T19:24:44;34.90;;;15.70;;
72105;SDS011;59975;47.646;18.318;2023-02-28T19:27:09;34.90;;;15.63;;
72105;SDS011;59975;47.646;18.318;2023-02-28T19:29:35;30.90;;;13.67;;
72105;SDS011;59975;47.646;18.318;2023-02-28T19:32:00;39.95;;;16.95;;
72105;SDS011;59975;47.646;18.318;2023-02-28T19:34:28;26.17;;;13.00;;
72105;SDS011;59975;47.646;18.318;2023-02-28T19:36:53;44.15;;;15.50;;
72105;SDS011;59975;47.646;18.318;2023-02-28T19:39:19;45.30;;;20.53;;
72105;SDS011;59975;47.646;18.318;2023-02-28T19:41:44;27.90;;;13.52;;
72105;SDS011;59975;47.646;18.318;2023-02-28T19:44:10;31.20;;;12.90;;
72105;SDS011;59975;47.646;18.318;2023-02-28T19:46:35;23.63;;;11.53;;
72105;SDS011;59975;47.646;18.318;2023-02-28T19:49:01;25.47;;;11.97;;
72105;SDS011;59975;47.646;18.318;2023-02-28T19:51:26;24.17;;;11.45;;
72105;SDS011;59975;47.646;18.318;2023-02-28T19:53:52;31.63;;;13.97;;
72105;SDS011;59975;47.646;18.318;2023-02-28T19:56:18;34.63;;;15.50;;
72105;SDS011;59975;47.646;18.318;2023-02-28T19:58:43;49.97;;;18.80;;
72105;SDS011;59975;47.646;18.318;2023-02-28T20:01:10;49.37;;;19.63;;
72105;SDS011;59975;47.646;18.318;2023-02-28T20:03:37;55.03;;;24.42;;
72105;SDS011;59975;47.646;18.318;2023-02-28T20:06:04;63.33;;;24.93;;
72105;SDS011;59975;47.646;18.318;2023-02-28T20:08:31;69.82;;;25.00;;
72105;SDS011;59975;47.646;18.318;2023-02-28T20:11:04;74.57;;;26.02;;
72105;SDS011;59975;47.646;18.318;2023-02-28T20:13:32;77.38;;;25.73;;
72105;SDS011;59975;47.646;18.318;2023-02-28T20:15:59;63.50;;;24.40;;
72105;SDS011;59975;47.646;18.318;2023-02-28T20:18:25;56.75;;;22.85;;
72105;SDS011;59975;47.646;18.318;2023-02-28T20:20:51;58.42;;;22.40;;
72105;SDS011;59975;47.646;18.318;2023-02-28T20:23:16;68.27;;;24.57;;